Terminal Aerodrome Forecast
Issued by NWS

Home | Current Version | Previous Version | Text Only | Print | Product List | Glossary On
Versions: 1 2 3 4 5 6 7 8 9 10 11 12 13 14 15 16 17 18 19
000
FTUS43 KAPX 261724
TAFTVC
TAF
KTVC 261724Z 2618/2718 VRB03KT P6SM OVC030
     FM270700 35004KT 2SM -SHSN OVC025
     FM271000 33009KT 1SM -SHSN OVC019
     FM271300 35010G19KT 2SM -SHSN OVC025=

USA.gov is the U.S. government's official web portal to all federal, state and local government web resources and services.